sensor_id;sensor_type;location;lat;lon;timestamp;P1;durP1;ratioP1;P2;durP2;ratioP2
22284;SDS011;11311;52.192;20.900;2023-11-21T00:01:08;44.85;;;28.45;;
22284;SDS011;11311;52.192;20.900;2023-11-21T00:03:37;50.00;;;29.87;;
22284;SDS011;11311;52.192;20.900;2023-11-21T00:06:08;48.67;;;30.65;;
22284;SDS011;11311;52.192;20.900;2023-11-21T00:08:37;52.95;;;31.67;;
22284;SDS011;11311;52.192;20.900;2023-11-21T00:11:07;46.05;;;25.60;;
22284;SDS011;11311;52.192;20.900;2023-11-21T00:13:35;48.75;;;31.25;;
22284;SDS011;11311;52.192;20.900;2023-11-21T00:16:06;43.73;;;29.23;;
22284;SDS011;11311;52.192;20.900;2023-11-21T00:18:36;66.63;;;35.13;;
22284;SDS011;11311;52.192;20.900;2023-11-21T00:21:06;68.47;;;34.45;;
22284;SDS011;11311;52.192;20.900;2023-11-21T00:23:36;52.28;;;31.13;;
22284;SDS011;11311;52.192;20.900;2023-11-21T00:26:05;57.33;;;32.83;;
22284;SDS011;11311;52.192;20.900;2023-11-21T00:28:34;60.73;;;33.73;;
22284;SDS011;11311;52.192;20.900;2023-11-21T00:31:04;50.13;;;25.67;;
22284;SDS011;11311;52.192;20.900;2023-11-21T00:33:34;63.47;;;34.72;;
22284;SDS011;11311;52.192;20.900;2023-11-21T00:36:04;49.03;;;31.63;;
22284;SDS011;11311;52.192;20.900;2023-11-21T00:38:37;64.07;;;33.15;;
22284;SDS011;11311;52.192;20.900;2023-11-21T00:43:35;62.03;;;34.63;;
22284;SDS011;11311;52.192;20.900;2023-11-21T00:46:06;48.10;;;27.02;;
22284;SDS011;11311;52.192;20.900;2023-11-21T00:48:36;79.43;;;37.30;;
22284;SDS011;11311;52.192;20.900;2023-11-21T00:51:05;70.60;;;34.85;;
22284;SDS011;11311;52.192;20.900;2023-11-21T00:53:34;76.80;;;35.83;;
22284;SDS011;11311;52.192;20.900;2023-11-21T00:56:04;67.97;;;35.72;;
22284;SDS011;11311;52.192;20.900;2023-11-21T00:58:36;68.47;;;36.45;;
22284;SDS011;11311;52.192;20.900;2023-11-21T01:01:06;68.60;;;35.28;;
22284;SDS011;11311;52.192;20.900;2023-11-21T01:03:35;62.92;;;35.70;;
22284;SDS011;11311;52.192;20.900;2023-11-21T01:06:05;73.53;;;39.37;;
22284;SDS011;11311;52.192;20.900;2023-11-21T01:08:35;75.63;;;36.83;;
22284;SDS011;11311;52.192;20.900;2023-11-21T01:11:05;76.65;;;36.15;;
22284;SDS011;11311;52.192;20.900;2023-11-21T01:16:04;76.25;;;38.92;;
22284;SDS011;11311;52.192;20.900;2023-11-21T01:21:05;89.35;;;36.83;;
22284;SDS011;11311;52.192;20.900;2023-11-21T01:23:36;82.57;;;38.85;;
22284;SDS011;11311;52.192;20.900;2023-11-21T01:26:05;83.45;;;41.53;;
22284;SDS011;11311;52.192;20.900;2023-11-21T01:28:36;71.57;;;37.67;;
22284;SDS011;11311;52.192;20.900;2023-11-21T01:31:05;87.63;;;40.85;;
22284;SDS011;11311;52.192;20.900;2023-11-21T01:33:36;62.93;;;36.23;;
22284;SDS011;11311;52.192;20.900;2023-11-21T01:36:05;70.13;;;36.67;;
22284;SDS011;11311;52.192;20.900;2023-11-21T01:41:04;74.03;;;36.90;;
22284;SDS011;11311;52.192;20.900;2023-11-21T01:43:33;65.40;;;34.35;;
22284;SDS011;11311;52.192;20.900;2023-11-21T01:46:03;56.38;;;34.35;;
22284;SDS011;11311;52.192;20.900;2023-11-21T01:48:33;68.65;;;37.30;;
22284;SDS011;11311;52.192;20.900;2023-11-21T01:51:06;65.55;;;36.35;;
22284;SDS011;11311;52.192;20.900;2023-11-21T01:53:35;60.08;;;32.92;;
22284;SDS011;11311;52.192;20.900;2023-11-21T01:56:05;49.27;;;33.37;;
22284;SDS011;11311;52.192;20.900;2023-11-21T01:58:35;61.88;;;33.47;;
22284;SDS011;11311;52.192;20.900;2023-11-21T02:01:05;48.47;;;31.85;;
22284;SDS011;11311;52.192;20.900;2023-11-21T02:03:35;52.72;;;32.70;;
22284;SDS011;11311;52.192;20.900;2023-11-21T02:06:05;53.33;;;32.92;;
22284;SDS011;11311;52.192;20.900;2023-11-21T02:08:36;54.10;;;33.17;;
22284;SDS011;11311;52.192;20.900;2023-11-21T02:11:07;49.72;;;30.65;;
22284;SDS011;11311;52.192;20.900;2023-11-21T02:13:36;67.70;;;33.95;;
22284;SDS011;11311;52.192;20.900;2023-11-21T02:16:05;54.55;;;32.72;;
22284;SDS011;11311;52.192;20.900;2023-11-21T02:18:37;52.17;;;32.65;;
22284;SDS011;11311;52.192;20.900;2023-11-21T02:21:07;52.85;;;30.92;;
22284;SDS011;11311;52.192;20.900;2023-11-21T02:26:12;55.00;;;31.50;;
22284;SDS011;11311;52.192;20.900;2023-11-21T02:28:41;54.25;;;32.33;;
22284;SDS011;11311;52.192;20.900;2023-11-21T02:31:10;52.60;;;31.27;;
22284;SDS011;11311;52.192;20.900;2023-11-21T02:33:40;61.67;;;33.30;;
22284;SDS011;11311;52.192;20.900;2023-11-21T02:36:09;54.33;;;31.13;;
22284;SDS011;11311;52.192;20.900;2023-11-21T02:38:40;53.35;;;30.58;;
22284;SDS011;11311;52.192;20.900;2023-11-21T02:41:09;60.83;;;33.63;;
22284;SDS011;11311;52.192;20.900;2023-11-21T02:43:38;57.50;;;31.08;;
22284;SDS011;11311;52.192;20.900;2023-11-21T02:46:08;45.35;;;29.85;;
22284;SDS011;11311;52.192;20.900;2023-11-21T02:48:39;45.95;;;32.50;;
22284;SDS011;11311;52.192;20.900;2023-11-21T02:51:08;61.78;;;34.15;;
22284;SDS011;11311;52.192;20.900;2023-11-21T02:53:37;52.42;;;32.35;;
22284;SDS011;11311;52.192;20.900;2023-11-21T02:56:08;38.85;;;23.08;;
22284;SDS011;11311;52.192;20.900;2023-11-21T02:58:37;44.72;;;29.92;;
22284;SDS011;11311;52.192;20.900;2023-11-21T03:01:06;49.45;;;30.42;;
22284;SDS011;11311;52.192;20.900;2023-11-21T03:03:35;46.47;;;29.02;;
22284;SDS011;11311;52.192;20.900;2023-11-21T03:06:07;44.53;;;28.60;;
22284;SDS011;11311;52.192;20.900;2023-11-21T03:08:36;44.03;;;30.23;;
22284;SDS011;11311;52.192;20.900;2023-11-21T03:11:06;40.63;;;27.90;;
22284;SDS011;11311;52.192;20.900;2023-11-21T03:16:05;50.53;;;29.92;;
22284;SDS011;11311;52.192;20.900;2023-11-21T03:18:35;53.97;;;30.85;;
22284;SDS011;11311;52.192;20.900;2023-11-21T03:21:05;35.28;;;22.13;;
22284;SDS011;11311;52.192;20.900;2023-11-21T03:23:36;44.53;;;29.23;;
22284;SDS011;11311;52.192;20.900;2023-11-21T03:26:05;45.47;;;30.08;;
22284;SDS011;11311;52.192;20.900;2023-11-21T03:31:05;39.60;;;27.15;;
22284;SDS011;11311;52.192;20.900;2023-11-21T03:33:36;40.25;;;28.02;;
22284;SDS011;11311;52.192;20.900;2023-11-21T03:36:05;40.45;;;27.85;;
22284;SDS011;11311;52.192;20.900;2023-11-21T03:38:36;42.80;;;28.95;;
22284;SDS011;11311;52.192;20.900;2023-11-21T03:41:06;46.15;;;30.15;;
22284;SDS011;11311;52.192;20.900;2023-11-21T03:43:38;41.20;;;28.77;;
22284;SDS011;11311;52.192;20.900;2023-11-21T03:46:07;45.08;;;30.35;;
22284;SDS011;11311;52.192;20.900;2023-11-21T03:48:37;42.25;;;29.00;;
22284;SDS011;11311;52.192;20.900;2023-11-21T03:51:06;45.53;;;30.00;;
22284;SDS011;11311;52.192;20.900;2023-11-21T03:53:35;43.00;;;29.93;;
22284;SDS011;11311;52.192;20.900;2023-11-21T03:56:06;43.03;;;27.58;;
22284;SDS011;11311;52.192;20.900;2023-11-21T03:58:35;43.20;;;28.50;;
22284;SDS011;11311;52.192;20.900;2023-11-21T04:01:06;48.70;;;30.02;;
22284;SDS011;11311;52.192;20.900;2023-11-21T04:03:35;52.13;;;31.23;;
22284;SDS011;11311;52.192;20.900;2023-11-21T04:06:04;44.92;;;31.30;;
22284;SDS011;11311;52.192;20.900;2023-11-21T04:08:34;47.67;;;31.15;;
22284;SDS011;11311;52.192;20.900;2023-11-21T04:11:03;46.80;;;28.95;;
22284;SDS011;11311;52.192;20.900;2023-11-21T04:13:32;54.95;;;32.58;;
22284;SDS011;11311;52.192;20.900;2023-11-21T04:16:01;49.83;;;31.23;;
22284;SDS011;11311;52.192;20.900;2023-11-21T04:18:32;58.22;;;31.02;;
22284;SDS011;11311;52.192;20.900;2023-11-21T04:21:01;49.67;;;28.70;;
22284;SDS011;11311;52.192;20.900;2023-11-21T04:23:31;44.42;;;30.08;;
22284;SDS011;11311;52.192;20.900;2023-11-21T04:26:00;37.17;;;28.10;;
22284;SDS011;11311;52.192;20.900;2023-11-21T04:28:29;38.60;;;25.95;;
22284;SDS011;11311;52.192;20.900;2023-11-21T04:30:58;39.13;;;26.88;;
22284;SDS011;11311;52.192;20.900;2023-11-21T04:33:27;36.17;;;27.13;;
22284;SDS011;11311;52.192;20.900;2023-11-21T04:35:57;38.20;;;25.23;;
22284;SDS011;11311;52.192;20.900;2023-11-21T04:38:26;32.80;;;23.55;;
22284;SDS011;11311;52.192;20.900;2023-11-21T04:40:55;41.13;;;24.05;;
22284;SDS011;11311;52.192;20.900;2023-11-21T04:43:27;36.35;;;23.48;;
22284;SDS011;11311;52.192;20.900;2023-11-21T04:45:56;26.95;;;17.70;;
22284;SDS011;11311;52.192;20.900;2023-11-21T04:48:25;31.27;;;21.58;;
22284;SDS011;11311;52.192;20.900;2023-11-21T04:50:54;22.60;;;16.13;;
22284;SDS011;11311;52.192;20.900;2023-11-21T04:53:25;29.40;;;22.10;;
22284;SDS011;11311;52.192;20.900;2023-11-21T04:55:53;29.40;;;22.38;;
22284;SDS011;11311;52.192;20.900;2023-11-21T04:58:22;24.10;;;17.20;;
22284;SDS011;11311;52.192;20.900;2023-11-21T05:00:52;26.50;;;20.13;;
22284;SDS011;11311;52.192;20.900;2023-11-21T05:03:22;30.83;;;20.93;;
22284;SDS011;11311;52.192;20.900;2023-11-21T05:05:52;27.85;;;20.75;;
22284;SDS011;11311;52.192;20.900;2023-11-21T05:08:21;30.07;;;21.47;;
22284;SDS011;11311;52.192;20.900;2023-11-21T05:10:51;29.95;;;20.58;;
22284;SDS011;11311;52.192;20.900;2023-11-21T05:13:20;30.85;;;21.35;;
22284;SDS011;11311;52.192;20.900;2023-11-21T05:15:54;30.00;;;21.67;;
22284;SDS011;11311;52.192;20.900;2023-11-21T05:18:26;29.02;;;21.25;;
22284;SDS011;11311;52.192;20.900;2023-11-21T05:20:57;28.23;;;20.90;;
22284;SDS011;11311;52.192;20.900;2023-11-21T05:23:27;22.58;;;17.15;;
22284;SDS011;11311;52.192;20.900;2023-11-21T05:25:57;22.58;;;17.17;;
22284;SDS011;11311;52.192;20.900;2023-11-21T05:28:26;29.55;;;20.25;;
22284;SDS011;11311;52.192;20.900;2023-11-21T05:30:55;30.60;;;21.02;;
22284;SDS011;11311;52.192;20.900;2023-11-21T05:33:40;25.33;;;19.13;;
22284;SDS011;11311;52.192;20.900;2023-11-21T05:36:09;27.20;;;19.90;;
22284;SDS011;11311;52.192;20.900;2023-11-21T05:38:39;25.57;;;20.30;;
22284;SDS011;11311;52.192;20.900;2023-11-21T05:41:10;26.35;;;19.85;;
22284;SDS011;11311;52.192;20.900;2023-11-21T05:43:40;23.25;;;17.77;;
22284;SDS011;11311;52.192;20.900;2023-11-21T05:46:09;24.75;;;17.58;;
22284;SDS011;11311;52.192;20.900;2023-11-21T05:48:38;26.73;;;19.70;;
22284;SDS011;11311;52.192;20.900;2023-11-21T05:51:08;24.17;;;17.60;;
22284;SDS011;11311;52.192;20.900;2023-11-21T05:53:39;26.92;;;19.00;;
22284;SDS011;11311;52.192;20.900;2023-11-21T05:56:10;21.92;;;17.70;;
22284;SDS011;11311;52.192;20.900;2023-11-21T05:58:40;27.13;;;19.92;;
22284;SDS011;11311;52.192;20.900;2023-11-21T06:01:09;22.23;;;14.67;;
22284;SDS011;11311;52.192;20.900;2023-11-21T06:03:40;22.65;;;18.05;;
22284;SDS011;11311;52.192;20.900;2023-11-21T06:06:09;23.55;;;18.25;;
22284;SDS011;11311;52.192;20.900;2023-11-21T06:08:38;23.92;;;17.45;;
22284;SDS011;11311;52.192;20.900;2023-11-21T06:11:07;27.55;;;18.75;;
22284;SDS011;11311;52.192;20.900;2023-11-21T06:13:40;23.73;;;19.88;;
22284;SDS011;11311;52.192;20.900;2023-11-21T06:16:10;25.38;;;19.25;;
22284;SDS011;11311;52.192;20.900;2023-11-21T06:18:40;25.30;;;18.95;;
22284;SDS011;11311;52.192;20.900;2023-11-21T06:21:09;25.85;;;18.80;;
22284;SDS011;11311;52.192;20.900;2023-11-21T06:23:38;29.57;;;20.43;;
22284;SDS011;11311;52.192;20.900;2023-11-21T06:26:08;24.23;;;18.92;;
22284;SDS011;11311;52.192;20.900;2023-11-21T06:28:37;30.05;;;18.90;;
22284;SDS011;11311;52.192;20.900;2023-11-21T06:31:07;18.95;;;15.82;;
22284;SDS011;11311;52.192;20.900;2023-11-21T06:33:38;30.63;;;20.17;;
22284;SDS011;11311;52.192;20.900;2023-11-21T06:36:07;27.00;;;19.65;;
22284;SDS011;11311;52.192;20.900;2023-11-21T06:38:38;22.90;;;18.85;;
22284;SDS011;11311;52.192;20.900;2023-11-21T06:41:07;27.10;;;19.92;;
22284;SDS011;11311;52.192;20.900;2023-11-21T06:43:36;27.40;;;18.80;;
22284;SDS011;11311;52.192;20.900;2023-11-21T06:46:05;27.42;;;20.45;;
22284;SDS011;11311;52.192;20.900;2023-11-21T06:48:36;19.63;;;14.50;;
22284;SDS011;11311;52.192;20.900;2023-11-21T06:51:06;28.50;;;19.38;;
22284;SDS011;11311;52.192;20.900;2023-11-21T06:53:35;24.60;;;17.87;;
22284;SDS011;11311;52.192;20.900;2023-11-21T06:56:14;25.70;;;17.90;;
22284;SDS011;11311;52.192;20.900;2023-11-21T06:58:44;26.92;;;17.45;;
22284;SDS011;11311;52.192;20.900;2023-11-21T07:03:44;21.05;;;17.13;;
22284;SDS011;11311;52.192;20.900;2023-11-21T07:06:14;22.88;;;17.70;;
22284;SDS011;11311;52.192;20.900;2023-11-21T07:08:45;23.05;;;17.20;;
22284;SDS011;11311;52.192;20.900;2023-11-21T07:11:14;21.90;;;16.38;;
22284;SDS011;11311;52.192;20.900;2023-11-21T07:13:43;24.58;;;18.33;;
22284;SDS011;11311;52.192;20.900;2023-11-21T07:16:12;25.17;;;18.52;;
22284;SDS011;11311;52.192;20.900;2023-11-21T07:18:43;25.73;;;18.40;;
22284;SDS011;11311;52.192;20.900;2023-11-21T07:21:12;27.40;;;20.10;;
22284;SDS011;11311;52.192;20.900;2023-11-21T07:23:43;26.13;;;18.95;;
22284;SDS011;11311;52.192;20.900;2023-11-21T07:26:12;24.95;;;20.05;;
22284;SDS011;11311;52.192;20.900;2023-11-21T07:28:41;29.77;;;20.33;;
22284;SDS011;11311;52.192;20.900;2023-11-21T07:31:10;28.08;;;20.65;;
22284;SDS011;11311;52.192;20.900;2023-11-21T07:33:39;28.35;;;19.60;;
22284;SDS011;11311;52.192;20.900;2023-11-21T07:36:10;25.90;;;19.80;;
22284;SDS011;11311;52.192;20.900;2023-11-21T07:38:39;31.23;;;22.45;;
22284;SDS011;11311;52.192;20.900;2023-11-21T07:41:08;26.98;;;21.17;;
22284;SDS011;11311;52.192;20.900;2023-11-21T07:43:53;28.83;;;20.88;;
22284;SDS011;11311;52.192;20.900;2023-11-21T07:46:23;26.98;;;20.23;;
22284;SDS011;11311;52.192;20.900;2023-11-21T07:48:54;27.83;;;21.25;;
22284;SDS011;11311;52.192;20.900;2023-11-21T07:51:24;25.52;;;19.15;;
22284;SDS011;11311;52.192;20.900;2023-11-21T07:53:53;27.58;;;19.65;;
22284;SDS011;11311;52.192;20.900;2023-11-21T07:56:22;22.58;;;18.35;;
22284;SDS011;11311;52.192;20.900;2023-11-21T07:58:51;30.50;;;20.45;;
22284;SDS011;11311;52.192;20.900;2023-11-21T08:01:20;31.42;;;20.38;;
22284;SDS011;11311;52.192;20.900;2023-11-21T08:03:49;25.88;;;20.35;;
22284;SDS011;11311;52.192;20.900;2023-11-21T08:08:49;26.35;;;19.63;;
22284;SDS011;11311;52.192;20.900;2023-11-21T08:11:18;26.05;;;19.02;;
22284;SDS011;11311;52.192;20.900;2023-11-21T08:13:49;23.52;;;17.30;;
22284;SDS011;11311;52.192;20.900;2023-11-21T08:16:18;20.63;;;17.73;;
22284;SDS011;11311;52.192;20.900;2023-11-21T08:18:48;23.25;;;17.83;;
22284;SDS011;11311;52.192;20.900;2023-11-21T08:21:17;30.92;;;18.67;;
22284;SDS011;11311;52.192;20.900;2023-11-21T08:23:46;24.53;;;17.97;;
22284;SDS011;11311;52.192;20.900;2023-11-21T08:26:22;24.35;;;16.92;;
22284;SDS011;11311;52.192;20.900;2023-11-21T08:28:51;22.77;;;17.70;;
22284;SDS011;11311;52.192;20.900;2023-11-21T08:31:23;23.85;;;18.83;;
22284;SDS011;11311;52.192;20.900;2023-11-21T08:33:53;22.15;;;17.50;;
22284;SDS011;11311;52.192;20.900;2023-11-21T08:36:23;28.02;;;16.38;;
22284;SDS011;11311;52.192;20.900;2023-11-21T08:38:52;29.77;;;17.17;;
22284;SDS011;11311;52.192;20.900;2023-11-21T08:41:23;19.70;;;16.92;;
22284;SDS011;11311;52.192;20.900;2023-11-21T08:43:53;21.67;;;17.42;;
22284;SDS011;11311;52.192;20.900;2023-11-21T08:46:23;24.55;;;17.27;;
22284;SDS011;11311;52.192;20.900;2023-11-21T08:48:53;25.00;;;18.20;;
22284;SDS011;11311;52.192;20.900;2023-11-21T08:51:23;26.65;;;18.40;;
22284;SDS011;11311;52.192;20.900;2023-11-21T08:53:52;21.55;;;17.92;;
22284;SDS011;11311;52.192;20.900;2023-11-21T08:56:22;20.20;;;17.42;;
22284;SDS011;11311;52.192;20.900;2023-11-21T08:58:51;19.23;;;16.63;;
22284;SDS011;11311;52.192;20.900;2023-11-21T09:01:20;20.33;;;17.00;;
22284;SDS011;11311;52.192;20.900;2023-11-21T09:03:50;27.48;;;19.08;;
22284;SDS011;11311;52.192;20.900;2023-11-21T09:06:19;27.23;;;18.80;;
22284;SDS011;11311;52.192;20.900;2023-11-21T09:08:48;16.42;;;13.95;;
22284;SDS011;11311;52.192;20.900;2023-11-21T09:11:17;22.20;;;16.42;;
22284;SDS011;11311;52.192;20.900;2023-11-21T09:13:47;22.52;;;17.92;;
22284;SDS011;11311;52.192;20.900;2023-11-21T09:16:17;21.63;;;17.35;;
22284;SDS011;11311;52.192;20.900;2023-11-21T09:18:46;22.42;;;18.17;;
22284;SDS011;11311;52.192;20.900;2023-11-21T09:21:15;24.55;;;18.02;;
22284;SDS011;11311;52.192;20.900;2023-11-21T09:23:44;20.85;;;17.42;;
22284;SDS011;11311;52.192;20.900;2023-11-21T09:26:13;24.73;;;17.77;;
22284;SDS011;11311;52.192;20.900;2023-11-21T09:28:43;26.37;;;18.57;;
22284;SDS011;11311;52.192;20.900;2023-11-21T09:31:16;26.80;;;18.23;;
22284;SDS011;11311;52.192;20.900;2023-11-21T09:33:46;25.90;;;19.42;;
22284;SDS011;11311;52.192;20.900;2023-11-21T09:36:15;27.20;;;20.52;;
22284;SDS011;11311;52.192;20.900;2023-11-21T09:38:44;31.70;;;19.88;;
22284;SDS011;11311;52.192;20.900;2023-11-21T09:41:15;24.13;;;19.90;;
22284;SDS011;11311;52.192;20.900;2023-11-21T09:43:51;24.58;;;19.70;;
22284;SDS011;11311;52.192;20.900;2023-11-21T09:46:25;28.10;;;19.92;;
22284;SDS011;11311;52.192;20.900;2023-11-21T09:48:57;25.30;;;19.98;;
22284;SDS011;11311;52.192;20.900;2023-11-21T09:51:32;26.00;;;19.50;;
22284;SDS011;11311;52.192;20.900;2023-11-21T09:54:05;32.45;;;19.45;;
22284;SDS011;11311;52.192;20.900;2023-11-21T09:56:36;27.35;;;21.00;;
22284;SDS011;11311;52.192;20.900;2023-11-21T09:59:06;25.27;;;20.48;;
22284;SDS011;11311;52.192;20.900;2023-11-21T10:01:38;26.17;;;21.17;;
22284;SDS011;11311;52.192;20.900;2023-11-21T10:04:08;24.48;;;19.60;;
22284;SDS011;11311;52.192;20.900;2023-11-21T10:06:39;26.70;;;20.10;;
22284;SDS011;11311;52.192;20.900;2023-11-21T10:11:39;22.25;;;15.85;;
22284;SDS011;11311;52.192;20.900;2023-11-21T10:14:10;24.63;;;20.17;;
22284;SDS011;11311;52.192;20.900;2023-11-21T10:16:43;35.60;;;19.73;;
22284;SDS011;11311;52.192;20.900;2023-11-21T10:19:14;25.85;;;20.67;;
22284;SDS011;11311;52.192;20.900;2023-11-21T10:21:45;25.02;;;19.55;;
22284;SDS011;11311;52.192;20.900;2023-11-21T10:24:14;28.65;;;20.58;;
22284;SDS011;11311;52.192;20.900;2023-11-21T10:26:44;34.40;;;22.25;;
22284;SDS011;11311;52.192;20.900;2023-11-21T10:29:20;27.52;;;20.63;;
22284;SDS011;11311;52.192;20.900;2023-11-21T10:31:51;27.92;;;21.50;;
22284;SDS011;11311;52.192;20.900;2023-11-21T10:34:22;28.65;;;21.02;;
22284;SDS011;11311;52.192;20.900;2023-11-21T10:36:57;29.70;;;20.27;;
22284;SDS011;11311;52.192;20.900;2023-11-21T10:39:27;22.70;;;18.25;;
22284;SDS011;11311;52.192;20.900;2023-11-21T10:41:58;23.67;;;17.23;;
22284;SDS011;11311;52.192;20.900;2023-11-21T10:44:28;21.88;;;18.10;;
22284;SDS011;11311;52.192;20.900;2023-11-21T10:46:59;25.50;;;17.70;;
22284;SDS011;11311;52.192;20.900;2023-11-21T10:49:29;25.95;;;17.70;;
22284;SDS011;11311;52.192;20.900;2023-11-21T10:51:59;30.83;;;20.17;;
22284;SDS011;11311;52.192;20.900;2023-11-21T10:54:28;24.38;;;18.40;;
22284;SDS011;11311;52.192;20.900;2023-11-21T10:56:57;24.70;;;19.80;;
22284;SDS011;11311;52.192;20.900;2023-11-21T10:59:28;40.60;;;25.65;;
22284;SDS011;11311;52.192;20.900;2023-11-21T11:02:00;23.38;;;18.98;;
22284;SDS011;11311;52.192;20.900;2023-11-21T11:04:31;31.55;;;19.75;;
22284;SDS011;11311;52.192;20.900;2023-11-21T11:07:01;24.33;;;19.30;;
22284;SDS011;11311;52.192;20.900;2023-11-21T11:09:33;28.83;;;20.98;;
22284;SDS011;11311;52.192;20.900;2023-11-21T11:12:02;29.17;;;22.33;;
22284;SDS011;11311;52.192;20.900;2023-11-21T11:14:31;24.23;;;20.58;;
22284;SDS011;11311;52.192;20.900;2023-11-21T11:17:03;30.00;;;21.13;;
22284;SDS011;11311;52.192;20.900;2023-11-21T11:19:33;26.55;;;19.52;;
22284;SDS011;11311;52.192;20.900;2023-11-21T11:22:16;28.27;;;21.35;;
22284;SDS011;11311;52.192;20.900;2023-11-21T11:24:57;25.65;;;19.63;;
22284;SDS011;11311;52.192;20.900;2023-11-21T11:27:46;31.38;;;19.40;;
22284;SDS011;11311;52.192;20.900;2023-11-21T11:30:23;30.98;;;20.27;;
22284;SDS011;11311;52.192;20.900;2023-11-21T11:33:04;27.42;;;20.27;;
22284;SDS011;11311;52.192;20.900;2023-11-21T11:35:40;28.35;;;20.58;;
22284;SDS011;11311;52.192;20.900;2023-11-21T11:38:16;29.27;;;21.52;;
22284;SDS011;11311;52.192;20.900;2023-11-21T11:40:45;24.90;;;19.88;;
22284;SDS011;11311;52.192;20.900;2023-11-21T11:43:18;27.88;;;21.30;;
22284;SDS011;11311;52.192;20.900;2023-11-21T11:45:55;27.05;;;20.95;;
22284;SDS011;11311;52.192;20.900;2023-11-21T11:48:28;28.45;;;20.65;;
22284;SDS011;11311;52.192;20.900;2023-11-21T11:51:03;32.72;;;21.85;;
22284;SDS011;11311;52.192;20.900;2023-11-21T11:53:36;27.48;;;20.92;;
22284;SDS011;11311;52.192;20.900;2023-11-21T11:56:20;26.48;;;21.35;;
22284;SDS011;11311;52.192;20.900;2023-11-21T11:58:53;34.67;;;23.00;;
22284;SDS011;11311;52.192;20.900;2023-11-21T12:01:24;30.25;;;23.85;;
22284;SDS011;11311;52.192;20.900;2023-11-21T12:07:03;30.48;;;22.13;;
22284;SDS011;11311;52.192;20.900;2023-11-21T12:09:33;29.70;;;23.70;;
22284;SDS011;11311;52.192;20.900;2023-11-21T12:12:03;30.90;;;23.23;;
22284;SDS011;11311;52.192;20.900;2023-11-21T12:14:32;26.13;;;20.40;;
22284;SDS011;11311;52.192;20.900;2023-11-21T12:17:02;27.77;;;21.48;;
22284;SDS011;11311;52.192;20.900;2023-11-21T12:19:33;29.10;;;21.17;;
22284;SDS011;11311;52.192;20.900;2023-11-21T12:22:02;34.13;;;23.65;;
22284;SDS011;11311;52.192;20.900;2023-11-21T12:24:31;20.50;;;16.17;;
22284;SDS011;11311;52.192;20.900;2023-11-21T12:27:01;28.00;;;22.13;;
22284;SDS011;11311;52.192;20.900;2023-11-21T12:29:30;19.35;;;16.02;;
22284;SDS011;11311;52.192;20.900;2023-11-21T12:34:28;26.98;;;21.65;;
22284;SDS011;11311;52.192;20.900;2023-11-21T12:36:59;29.83;;;22.48;;
22284;SDS011;11311;52.192;20.900;2023-11-21T12:39:28;32.58;;;21.75;;
22284;SDS011;11311;52.192;20.900;2023-11-21T12:41:57;33.65;;;24.02;;
22284;SDS011;11311;52.192;20.900;2023-11-21T12:44:27;28.40;;;23.42;;
22284;SDS011;11311;52.192;20.900;2023-11-21T12:46:56;30.97;;;23.80;;
22284;SDS011;11311;52.192;20.900;2023-11-21T12:49:28;36.78;;;24.48;;
22284;SDS011;11311;52.192;20.900;2023-11-21T12:51:57;31.08;;;23.08;;
22284;SDS011;11311;52.192;20.900;2023-11-21T12:54:28;28.67;;;23.90;;
22284;SDS011;11311;52.192;20.900;2023-11-21T12:56:59;33.85;;;24.63;;
22284;SDS011;11311;52.192;20.900;2023-11-21T12:59:29;31.95;;;25.05;;
22284;SDS011;11311;52.192;20.900;2023-11-21T13:01:58;33.72;;;24.77;;
22284;SDS011;11311;52.192;20.900;2023-11-21T13:04:32;32.95;;;26.17;;
22284;SDS011;11311;52.192;20.900;2023-11-21T13:07:05;35.85;;;24.75;;
22284;SDS011;11311;52.192;20.900;2023-11-21T13:09:41;31.88;;;23.70;;
22284;SDS011;11311;52.192;20.900;2023-11-21T13:12:10;33.08;;;23.83;;
22284;SDS011;11311;52.192;20.900;2023-11-21T13:14:40;29.60;;;24.27;;
22284;SDS011;11311;52.192;20.900;2023-11-21T13:19:39;31.52;;;22.15;;
22284;SDS011;11311;52.192;20.900;2023-11-21T13:22:09;29.83;;;23.13;;
22284;SDS011;11311;52.192;20.900;2023-11-21T13:24:38;32.97;;;24.65;;
22284;SDS011;11311;52.192;20.900;2023-11-21T13:27:09;29.77;;;23.30;;
22284;SDS011;11311;52.192;20.900;2023-11-21T13:29:38;31.80;;;23.38;;
22284;SDS011;11311;52.192;20.900;2023-11-21T13:32:07;29.48;;;23.90;;
22284;SDS011;11311;52.192;20.900;2023-11-21T13:34:39;27.48;;;23.55;;
22284;SDS011;11311;52.192;20.900;2023-11-21T13:37:12;33.47;;;24.77;;
22284;SDS011;11311;52.192;20.900;2023-11-21T13:39:41;43.73;;;25.83;;
22284;SDS011;11311;52.192;20.900;2023-11-21T13:42:14;28.88;;;24.23;;
22284;SDS011;11311;52.192;20.900;2023-11-21T13:44:44;29.98;;;24.25;;
22284;SDS011;11311;52.192;20.900;2023-11-21T13:47:16;27.08;;;22.25;;
22284;SDS011;11311;52.192;20.900;2023-11-21T13:49:44;28.83;;;22.85;;
22284;SDS011;11311;52.192;20.900;2023-11-21T13:52:15;29.33;;;23.08;;
22284;SDS011;11311;52.192;20.900;2023-11-21T13:54:46;29.52;;;22.50;;
22284;SDS011;11311;52.192;20.900;2023-11-21T13:57:17;29.27;;;22.13;;
22284;SDS011;11311;52.192;20.900;2023-11-21T13:59:47;29.58;;;23.55;;
22284;SDS011;11311;52.192;20.900;2023-11-21T14:02:16;29.58;;;24.00;;
22284;SDS011;11311;52.192;20.900;2023-11-21T14:04:46;27.25;;;21.95;;
22284;SDS011;11311;52.192;20.900;2023-11-21T14:07:23;29.73;;;23.98;;
22284;SDS011;11311;52.192;20.900;2023-11-21T14:10:00;29.50;;;23.08;;
22284;SDS011;11311;52.192;20.900;2023-11-21T14:12:32;29.13;;;22.58;;
22284;SDS011;11311;52.192;20.900;2023-11-21T14:15:06;33.00;;;24.15;;
22284;SDS011;11311;52.192;20.900;2023-11-21T14:17:37;32.97;;;24.10;;
22284;SDS011;11311;52.192;20.900;2023-11-21T14:20:09;29.13;;;23.45;;
22284;SDS011;11311;52.192;20.900;2023-11-21T14:22:44;36.08;;;24.85;;
22284;SDS011;11311;52.192;20.900;2023-11-21T14:27:46;27.58;;;22.58;;
22284;SDS011;11311;52.192;20.900;2023-11-21T14:30:15;30.70;;;23.85;;
22284;SDS011;11311;52.192;20.900;2023-11-21T14:32:47;28.75;;;21.73;;
22284;SDS011;11311;52.192;20.900;2023-11-21T14:35:16;28.73;;;22.45;;
22284;SDS011;11311;52.192;20.900;2023-11-21T14:37:45;32.30;;;24.30;;
22284;SDS011;11311;52.192;20.900;2023-11-21T14:40:14;30.63;;;23.60;;
22284;SDS011;11311;52.192;20.900;2023-11-21T14:42:50;31.75;;;23.92;;
22284;SDS011;11311;52.192;20.900;2023-11-21T14:45:21;37.75;;;25.17;;
22284;SDS011;11311;52.192;20.900;2023-11-21T14:47:53;29.02;;;22.75;;
22284;SDS011;11311;52.192;20.900;2023-11-21T14:50:33;35.57;;;25.97;;
22284;SDS011;11311;52.192;20.900;2023-11-21T14:53:40;30.20;;;25.42;;
22284;SDS011;11311;52.192;20.900;2023-11-21T14:56:10;35.13;;;24.38;;
22284;SDS011;11311;52.192;20.900;2023-11-21T14:58:49;31.60;;;24.02;;
22284;SDS011;11311;52.192;20.900;2023-11-21T15:01:18;31.55;;;24.58;;
22284;SDS011;11311;52.192;20.900;2023-11-21T15:03:58;31.30;;;23.52;;